Aviation Digital Data Service (ADDS)

Output produced by TAFs form (1412 UTC 23 March 2017)
found at http://www.aviationweather.gov/adds/tafs/
 
KABE 231124Z 2312/2412 32007KT P6SM SKC 
     FM231900 26005KT P6SM FEW250 
     FM232300 VRB04KT P6SM FEW250